Time;durP1;ratioP1;P1;durP2;ratioP2;P2;SDS_P1;SDS_P2;PMS_P1;PMS_P2;Temp;Humidity;BMP_temperature;BMP_pressure;BME280_temperature;BME280_humidity;BME280_pressure;Samples;Min_cycle;Max_cycle;Signal;HPM_P1;HPM_P2
2022/01/15 00:00:27;;;;;;;36.00;19.70;;;;;;;3.36;97.32;101586.13;4966502;28;20449;-86
2022/01/15 00:02:58;;;;;;;35.25;18.95;;;;;;;3.29;97.65;101582.78;4967376;28;20180;-85
2022/01/15 00:05:24;;;;;;;41.75;18.98;;;;;;;3.28;97.80;101582.81;4968219;28;20467;-85
2022/01/15 00:07:50;;;;;;;36.13;18.95;;;;;;;3.22;97.62;101578.56;4965991;28;20031;-86
2022/01/15 00:10:20;;;;;;;37.45;20.05;;;;;;;3.20;97.77;101582.09;4962635;28;20059;-85
2022/01/15 00:12:48;;;;;;;37.25;20.50;;;;;;;3.23;98.39;101588.09;4966349;28;20033;-85
2022/01/15 00:15:24;;;;;;;37.70;20.20;;;;;;;3.27;97.94;101586.31;4965931;28;20493;-86
2022/01/15 00:18:02;;;;;;;36.80;19.02;;;;;;;3.26;97.83;101582.81;4966394;28;20094;-86
2022/01/15 00:20:29;;;;;;;42.88;21.42;;;;;;;3.22;98.03;101577.72;4962877;28;20354;-87
2022/01/15 00:22:56;;;;;;;37.65;20.88;;;;;;;3.24;97.74;101582.00;4960749;28;20058;-86
2022/01/15 00:25:26;;;;;;;40.05;20.88;;;;;;;3.26;97.97;101575.06;5015461;28;20064;-87
2022/01/15 00:27:52;;;;;;;37.92;20.92;;;;;;;3.28;98.10;101582.81;5045942;28;20021;-87
2022/01/15 00:30:26;;;;;;;37.83;20.08;;;;;;;3.30;97.35;101586.22;5030749;28;20493;-87
2022/01/15 00:32:52;;;;;;;36.72;19.50;;;;;;;3.34;97.75;101587.91;5036811;28;20056;-86
2022/01/15 00:35:19;;;;;;;32.42;19.30;;;;;;;3.34;97.37;101581.00;5029897;28;20462;-86
2022/01/15 00:37:45;;;;;;;37.17;19.95;;;;;;;3.34;97.75;101572.38;5030031;28;20060;-87
2022/01/15 00:43:37;;;;;;;35.17;18.50;;;;;;;3.24;97.82;101566.47;5035266;28;20091;-87
2022/01/15 00:46:13;;;;;;;35.47;19.88;;;;;;;3.17;97.89;101575.22;5034158;28;20052;-87
2022/01/15 00:48:39;;;;;;;41.13;19.63;;;;;;;3.13;98.16;101570.97;5034772;28;20122;-85
2022/01/15 00:51:04;;;;;;;35.85;19.85;;;;;;;3.11;98.42;101575.28;5044105;28;20052;-86
2022/01/15 00:53:30;;;;;;;42.20;19.20;;;;;;;3.10;98.67;101576.19;5025366;28;20124;-86
2022/01/15 00:55:59;;;;;;;40.63;20.70;;;;;;;3.14;98.39;101565.75;5033543;28;20046;-86
2022/01/15 00:58:24;;;;;;;34.65;19.30;;;;;;;3.21;98.36;101574.28;5020910;28;20048;-86
2022/01/15 01:01:02;;;;;;;35.30;19.25;;;;;;;3.24;97.77;101575.97;5037139;28;20029;-86
2022/01/15 01:03:30;;;;;;;31.08;19.55;;;;;;;3.21;97.96;101573.44;5033482;28;20334;-86
2022/01/15 01:05:58;;;;;;;39.15;18.95;;;;;;;3.15;97.88;101580.44;5042861;28;20063;-86
2022/01/15 01:08:28;;;;;;;33.85;18.45;;;;;;;3.07;98.06;101571.88;5039742;28;20041;-85
2022/01/15 01:11:03;;;;;;;37.15;19.80;;;;;;;3.00;98.36;101578.03;5039984;28;20044;-85
2022/01/15 01:25:09;;;;;;;41.60;20.05;;;;;;;2.65;100.00;101569.03;4938085;28;20436;-85
2022/01/15 01:27:47;;;;;;;42.83;21.23;;;;;;;2.62;100.00;101574.25;4940612;29;20134;-85
2022/01/15 01:30:23;;;;;;;42.60;21.67;;;;;;;2.57;100.00;101567.44;4940037;29;20043;-86
2022/01/15 01:39:01;;;;;;;39.90;20.85;;;;;;;2.38;100.00;101567.69;4931432;29;20043;-86
2022/01/15 01:41:47;;;;;;;42.40;21.00;;;;;;;2.35;100.00;101564.28;4937737;28;20051;-87
2022/01/15 01:44:23;;;;;;;41.17;21.15;;;;;;;2.30;100.00;101566.03;4952095;29;20074;-86
2022/01/15 01:47:02;;;;;;;47.15;22.55;;;;;;;2.26;100.00;101567.81;4939426;29;20040;-87
2022/01/15 01:49:30;;;;;;;;;;;;;;;2.29;100.00;101565.19;4957924;28;20139;-86
2022/01/15 01:51:59;;;;;;;50.88;23.33;;;;;;;2.29;100.00;101559.16;4961450;28;19944;-87
2022/01/15 01:54:27;;;;;;;52.85;22.55;;;;;;;2.29;100.00;101572.09;4963491;28;20035;-87
2022/01/15 01:56:53;;;;;;;46.92;23.55;;;;;;;2.25;100.00;101566.09;4952360;29;20147;-87
2022/01/15 01:59:21;;;;;;;51.17;22.63;;;;;;;2.21;100.00;101558.41;5007797;28;20398;-87
2022/01/15 02:01:49;;;;;;;55.92;24.58;;;;;;;2.16;100.00;101561.06;5028180;28;20128;-84
2022/01/15 02:04:15;;;;;;;47.03;22.13;;;;;;;2.07;100.00;101550.78;5023441;28;20741;-86
2022/01/15 02:06:42;;;;;;;49.03;23.67;;;;;;;2.02;100.00;101548.28;5034614;28;20188;-87
2022/01/15 02:09:20;;;;;;;57.47;22.90;;;;;;;1.99;100.00;101555.19;5041625;28;20041;-87
2022/01/15 02:11:50;;;;;;;57.70;24.98;;;;;;;1.99;100.00;101555.19;5031968;28;20033;-86
2022/01/15 02:14:29;;;;;;;49.72;23.02;;;;;;;1.94;100.00;101563.03;4998370;28;20469;-86
2022/01/15 02:16:56;;;;;;;53.88;23.73;;;;;;;1.90;100.00;101551.00;5046614;28;20029;-85
2022/01/15 02:19:29;;;;;;;53.42;23.33;;;;;;;1.88;100.00;101545.81;5031510;28;20500;-86
2022/01/15 02:24:41;;;;;;;59.78;25.20;;;;;;;1.89;100.00;101544.97;5038872;28;20039;-86
2022/01/15 02:27:07;;;;;;;61.40;25.23;;;;;;;1.86;100.00;101545.00;5031100;28;20065;-86
2022/01/15 02:29:32;;;;;;;49.58;21.98;;;;;;;1.77;100.00;101534.75;5031834;28;20620;-86
2022/01/15 02:31:58;;;;;;;51.83;23.27;;;;;;;1.76;100.00;101545.97;5024711;28;20040;-86
2022/01/15 02:34:25;;;;;;;60.30;24.73;;;;;;;1.72;100.00;101538.25;5027335;28;20098;-86
2022/01/15 02:36:58;;;;;;;59.25;25.95;;;;;;;1.72;100.00;101533.09;5019731;28;20025;-86
2022/01/15 02:39:26;;;;;;;60.70;24.65;;;;;;;1.73;100.00;101525.31;5021992;28;20044;-87
2022/01/15 02:41:54;;;;;;;59.13;24.77;;;;;;;1.79;100.00;101529.56;5037317;28;20470;-85
2022/01/15 02:44:33;;;;;;;67.85;27.40;;;;;;;1.84;100.00;101533.81;5061428;28;20374;-85
2022/01/15 02:49:28;;;;;;;71.75;26.25;;;;;;;1.87;100.00;101525.16;5033534;28;20033;-86
2022/01/15 02:51:56;;;;;;;63.97;26.13;;;;;;;1.85;100.00;101529.47;5031137;28;20033;-86
2022/01/15 02:54:22;;;;;;;64.30;26.23;;;;;;;1.93;100.00;101525.97;5032926;28;20028;-87
2022/01/15 02:56:47;;;;;;;67.85;25.83;;;;;;;1.93;100.00;101527.69;5017305;28;20415;-85
2022/01/15 02:59:20;;;;;;;59.60;24.05;;;;;;;1.87;100.00;101531.19;5029654;28;20334;-87
2022/01/15 03:01:48;;;;;;;59.85;25.13;;;;;;;1.84;100.00;101530.38;5032339;28;20045;-87
2022/01/15 03:04:17;;;;;;;62.88;26.40;;;;;;;1.76;100.00;101514.09;5023376;28;20037;-87
2022/01/15 03:06:45;;;;;;;56.23;25.20;;;;;;;1.72;100.00;101518.44;5017304;28;20041;-85
2022/01/15 03:09:16;;;;;;;51.88;23.77;;;;;;;1.64;100.00;101520.25;5038900;28;20037;-86
2022/01/15 03:11:42;;;;;;;52.63;23.05;;;;;;;1.59;100.00;101528.03;5033290;28;20033;-86
2022/01/15 03:14:08;;;;;;;53.10;23.63;;;;;;;1.59;100.00;101520.25;5030847;28;20045;-86
2022/01/15 03:16:35;;;;;;;56.08;24.25;;;;;;;1.65;100.00;101521.94;5031051;28;20048;-86
2022/01/15 03:19:04;;;;;;;57.78;25.02;;;;;;;1.73;100.00;101516.69;5038694;28;20473;-85
2022/01/15 03:21:30;;;;;;;58.20;24.45;;;;;;;1.78;100.00;101514.91;5017976;28;20458;-86
2022/01/15 03:23:55;;;;;;;58.42;24.02;;;;;;;1.74;100.00;101510.63;5042807;28;20039;-88
2022/01/15 03:26:21;;;;;;;56.47;24.10;;;;;;;1.67;100.00;101500.38;5028510;28;20030;-85
2022/01/15 03:28:47;;;;;;;58.38;25.38;;;;;;;1.70;100.00;101508.09;5032197;28;20060;-85
2022/01/15 03:31:16;;;;;;;60.55;25.77;;;;;;;1.69;100.00;101505.53;5027824;28;20022;-85
2022/01/15 03:33:41;;;;;;;63.40;27.35;;;;;;;1.69;100.00;101497.78;5048598;28;20029;-86
2022/01/15 03:36:08;;;;;;;65.13;25.38;;;;;;;1.67;100.00;101500.38;5031253;28;20390;-86
2022/01/15 03:38:36;;;;;;;61.83;25.45;;;;;;;1.62;100.00;101499.56;5025067;28;20076;-86
2022/01/15 03:41:02;;;;;;;59.90;25.60;;;;;;;1.61;100.00;101494.41;5035570;28;20343;-86
2022/01/15 03:43:28;;;;;;;54.72;24.48;;;;;;;1.56;100.00;101497.06;5018930;28;20750;-87
2022/01/15 03:45:53;;;;;;;59.95;24.25;;;;;;;1.53;100.00;101502.25;5020966;28;20028;-87
2022/01/15 03:48:19;;;;;;;60.20;24.35;;;;;;;1.51;100.00;101491.06;5017069;28;20025;-86
2022/01/15 03:50:45;;;;;;;60.28;24.75;;;;;;;1.51;100.00;101495.38;5047426;28;20136;-86
2022/01/15 03:53:10;;;;;;;62.63;24.52;;;;;;;1.47;100.00;101497.13;5021147;28;20030;-87
2022/01/15 03:55:36;;;;;;;56.60;23.85;;;;;;;1.37;100.00;101487.75;5025163;28;20057;-86
2022/01/15 03:58:02;;;;;;;51.28;22.92;;;;;;;1.25;100.00;101490.47;5048597;28;20124;-85
2022/01/15 04:00:30;;;;;;;56.83;24.92;;;;;;;1.16;100.00;101484.50;5026296;28;20029;-86
2022/01/15 04:02:59;;;;;;;59.65;25.25;;;;;;;1.15;100.00;101485.38;5015245;28;20124;-86
2022/01/15 04:05:25;;;;;;;;;;;;;;;1.14;100.00;101491.41;5030559;28;20401;-85
2022/01/15 04:07:51;;;;;;;49.42;21.73;;;;;;;1.06;100.00;101490.63;5030555;28;19913;-85
2022/01/15 04:10:17;;;;;;;51.25;22.60;;;;;;;0.98;100.00;101492.41;5019204;28;20064;-87
2022/01/15 04:12:43;;;;;;;52.95;22.88;;;;;;;0.82;100.00;101490.81;5024978;28;20029;-86
2022/01/15 04:15:13;;;;;;;54.05;20.98;;;;;;;0.71;100.00;101486.59;5022743;28;20053;-85
2022/01/15 04:17:46;;;;;;;50.03;21.85;;;;;;;0.66;100.00;101474.56;5008316;28;20087;-87
2022/01/15 04:20:20;;;;;;;64.60;26.20;;;;;;;0.77;100.00;101477.06;5026442;28;20034;-85
2022/01/15 04:22:49;;;;;;;68.47;25.80;;;;;;;0.81;100.00;101489.94;5032623;28;20049;-86
2022/01/15 04:25:17;;;;;;;;;;;;;;;0.78;100.00;101491.69;5037252;28;20354;-86
2022/01/15 04:27:44;;;;;;;68.90;24.50;;;;;;;0.77;100.00;101488.25;5048584;28;20003;-86
2022/01/15 04:30:12;;;;;;;62.63;24.80;;;;;;;0.72;100.00;101490.03;5051191;28;20052;-85
2022/01/15 04:32:55;;;;;;;60.03;25.65;;;;;;;0.59;100.00;101486.66;5036238;28;20111;-86
2022/01/15 04:35:23;;;;;;;58.95;24.33;;;;;;;0.54;100.00;101484.97;5053058;28;20165;-85
2022/01/15 04:37:53;;;;;;;57.35;23.75;;;;;;;0.58;100.00;101492.69;5040774;28;20563;-85
2022/01/15 04:43:40;;;;;;;78.10;27.17;;;;;;;0.79;100.00;101489.13;5033087;28;20108;-86
2022/01/15 04:46:06;;;;;;;86.63;28.75;;;;;;;0.88;100.00;101491.63;5043026;28;20038;-84
2022/01/15 04:48:36;;;;;;;79.85;27.60;;;;;;;0.75;100.00;101484.84;5049724;28;20052;-86
2022/01/15 04:51:02;;;;;;;67.82;26.70;;;;;;;0.64;100.00;101490.06;5042423;28;20117;-81
2022/01/15 04:53:27;;;;;;;77.22;27.00;;;;;;;0.64;100.00;101492.66;5016638;28;20124;-87
2022/01/15 04:55:53;;;;;;;84.18;29.15;;;;;;;0.68;100.00;101471.13;5032630;28;20041;-87
2022/01/15 04:58:27;;;;;;;97.85;30.45;;;;;;;0.77;100.00;101479.66;5031474;28;20404;-86
2022/01/15 05:00:53;;;;;;;86.35;27.85;;;;;;;0.69;100.00;101484.88;5034985;28;20026;-86
2022/01/15 05:03:25;;;;;;;77.25;26.52;;;;;;;0.61;100.00;101490.09;5046487;28;20075;-86
2022/01/15 05:05:53;;;;;;;70.57;25.67;;;;;;;0.54;100.00;101482.41;5035278;28;20033;-86
2022/01/15 05:08:21;;;;;;;68.97;27.42;;;;;;;0.48;100.00;101478.13;5020692;28;20493;-86
2022/01/15 05:10:49;;;;;;;70.53;26.00;;;;;;;0.36;100.00;101479.06;5016377;28;20057;-86
2022/01/15 05:13:15;;;;;;;65.28;24.88;;;;;;;0.30;100.00;101470.50;5044362;28;20100;-86
2022/01/15 05:15:43;;;;;;;70.63;24.35;;;;;;;0.31;100.00;101467.91;5015883;28;20021;-86
2022/01/15 05:18:11;;;;;;;86.30;27.85;;;;;;;0.34;100.00;101473.06;5038134;28;20060;-86
2022/01/15 05:20:41;;;;;;;63.80;26.00;;;;;;;0.33;100.00;101471.31;5029884;28;20044;-87
2022/01/15 05:23:06;;;;;;;76.07;26.73;;;;;;;0.29;100.00;101477.38;5031251;28;20049;-88
2022/01/15 05:25:32;;;;;;;67.53;23.73;;;;;;;0.23;100.00;101478.28;5046480;28;20167;-86
2022/01/15 05:27:57;;;;;;;70.70;24.77;;;;;;;0.22;100.00;101471.41;5032864;28;20095;-87
2022/01/15 05:30:23;;;;;;;69.13;26.52;;;;;;;0.24;100.00;101469.66;5036685;28;20032;-86
2022/01/15 05:32:54;;;;;;;63.67;26.27;;;;;;;0.26;100.00;101469.69;5021321;28;20117;-86
2022/01/15 05:35:25;;;;;;;75.18;26.48;;;;;;;0.22;100.00;101462.78;5033192;28;20056;-87
2022/01/15 05:38:05;;;;;;;61.92;24.52;;;;;;;0.18;100.00;101472.25;5017281;28;20461;-86
2022/01/15 05:40:48;;;;;;;59.15;24.15;;;;;;;0.14;100.00;101462.84;5027146;28;20076;-87
2022/01/15 05:43:14;;;;;;;61.13;24.70;;;;;;;0.12;100.00;101474.91;5010722;28;20045;-86
2022/01/15 05:45:53;;;;;;;54.05;23.92;;;;;;;0.17;100.00;101474.88;5033617;28;20446;-85
2022/01/15 05:48:31;;;;;;;64.85;24.35;;;;;;;0.26;100.00;101479.09;5048092;28;20082;-86
2022/01/15 05:53:48;;;;;;;66.50;27.25;;;;;;;0.36;100.00;101473.91;5029970;28;20690;-87
2022/01/15 05:56:18;;;;;;;58.17;24.73;;;;;;;0.35;100.00;101467.03;5031730;28;20041;-87
2022/01/15 05:58:46;;;;;;;60.67;24.77;;;;;;;0.29;100.00;101479.94;5039475;28;20234;-86
2022/01/15 06:01:16;;;;;;;55.65;23.30;;;;;;;0.25;100.00;101475.69;5033807;28;20088;-86
2022/01/15 06:03:46;;;;;;;57.90;24.08;;;;;;;0.21;100.00;101481.72;5043061;28;20067;-86
2022/01/15 06:06:17;;;;;;;57.08;24.20;;;;;;;0.19;100.00;101484.31;5031604;28;20128;-86
2022/01/15 06:08:58;;;;;;;60.88;23.50;;;;;;;0.22;100.00;101484.31;5024860;28;20536;-87
2022/01/15 06:11:24;;;;;;;60.22;25.58;;;;;;;0.34;100.00;101482.53;5033441;28;20089;-85
2022/01/15 06:13:52;;;;;;;58.83;22.77;;;;;;;0.41;100.00;101486.78;5025079;28;20121;-87
2022/01/15 06:16:23;;;;;;;64.60;24.75;;;;;;;0.52;100.00;101481.53;5015526;28;20343;-85
2022/01/15 06:19:06;;;;;;;52.90;23.00;;;;;;;0.64;100.00;101484.91;5024960;28;20021;-88
2022/01/15 06:21:41;;;;;;;60.72;25.38;;;;;;;0.75;100.00;101487.44;5027803;28;20041;-88
2022/01/15 06:24:07;;;;;;;71.57;26.52;;;;;;;0.91;100.00;101494.19;5036754;28;20029;-86
2022/01/15 06:26:32;;;;;;;72.32;26.63;;;;;;;1.08;100.00;101488.03;5052866;28;20044;-87
2022/01/15 06:29:01;;;;;;;73.30;27.27;;;;;;;1.11;100.00;101495.75;5039958;28;20843;-87
2022/01/15 06:31:28;;;;;;;69.75;27.20;;;;;;;1.18;100.00;101493.09;5060241;28;20041;-87
2022/01/15 06:33:54;;;;;;;58.67;25.58;;;;;;;1.23;100.00;101490.47;5048369;28;20036;-85
2022/01/15 06:36:19;;;;;;;60.97;26.55;;;;;;;1.22;100.00;101499.09;5034811;28;20089;-87
2022/01/15 06:38:48;;;;;;;59.60;26.38;;;;;;;1.28;100.00;101490.44;5052689;28;20073;-87
2022/01/15 06:41:13;;;;;;;58.88;25.60;;;;;;;1.39;100.00;101489.47;5043499;28;20075;-87
2022/01/15 06:43:39;;;;;;;55.08;25.13;;;;;;;1.47;100.00;101491.97;5033068;28;20041;-87
2022/01/15 06:46:04;;;;;;;59.13;25.05;;;;;;;1.44;100.00;101486.81;5048931;28;20029;-86
2022/01/15 06:48:30;;;;;;;56.53;23.98;;;;;;;1.52;100.00;101494.50;5045087;28;20022;-86
2022/01/15 06:50:56;;;;;;;51.58;22.85;;;;;;;1.56;100.00;101497.06;5020489;28;20064;-87
2022/01/15 06:53:41;;;;;;;52.75;23.73;;;;;;;1.60;100.00;101497.88;5010768;28;20040;-86
2022/01/15 06:56:09;;;;;;;57.85;24.20;;;;;;;1.59;100.00;101490.97;5035063;28;20039;-87
2022/01/15 06:58:35;;;;;;;49.28;22.40;;;;;;;1.62;100.00;101496.13;5036662;28;20101;-86
2022/01/15 07:01:00;;;;;;;52.70;23.65;;;;;;;1.62;100.00;101494.38;5032846;28;20049;-86
2022/01/15 07:03:29;;;;;;;49.80;22.30;;;;;;;1.71;100.00;101493.44;5019776;28;20485;-86
2022/01/15 07:05:55;;;;;;;47.58;21.92;;;;;;;1.78;100.00;101504.56;4990114;28;20383;-86
2022/01/15 07:08:20;;;;;;;44.53;21.15;;;;;;;1.82;100.00;101501.94;5023595;28;20025;-86
2022/01/15 07:10:46;;;;;;;46.05;21.38;;;;;;;1.82;100.00;101506.28;5054388;28;20048;-85
2022/01/15 07:13:11;;;;;;;48.40;21.75;;;;;;;1.83;100.00;101502.81;5029002;28;20041;-86
2022/01/15 07:15:37;;;;;;;50.50;21.23;;;;;;;1.85;100.00;101501.88;5031597;28;20022;-85
2022/01/15 07:18:02;;;;;;;50.30;22.95;;;;;;;1.86;100.00;101500.19;5022212;28;20046;-86
2022/01/15 07:20:28;;;;;;;51.80;23.25;;;;;;;1.87;100.00;101501.88;5027805;28;20551;-87
2022/01/15 07:22:55;;;;;;;52.42;23.38;;;;;;;1.93;100.00;101507.00;5027414;28;20025;-86
2022/01/15 07:25:21;;;;;;;54.40;24.08;;;;;;;2.00;100.00;101505.19;5026723;28;20029;-87
2022/01/15 07:27:46;;;;;;;48.15;22.92;;;;;;;2.04;100.00;101505.16;5032819;28;20108;-86
2022/01/15 07:30:14;;;;;;;61.28;23.58;;;;;;;2.32;100.00;101500.47;5028689;28;20053;-86
2022/01/15 07:32:41;;;;;;;57.38;25.15;;;;;;;2.32;100.00;101516.00;5041394;28;20064;-85
2022/01/15 07:35:08;;;;;;;58.90;25.38;;;;;;;2.79;100.00;101503.25;5029744;28;20120;-85
2022/01/15 07:37:35;;;;;;;61.10;24.88;;;;;;;2.88;100.00;101505.69;5031393;28;20549;-86
2022/01/15 07:40:00;;;;;;;50.38;23.88;;;;;;;2.97;100.00;101505.56;5049792;28;20068;-86
2022/01/15 07:42:33;;;;;;;43.13;21.80;;;;;;;2.86;100.00;101502.28;5020872;28;20039;-87
2022/01/15 07:44:59;;;;;;;40.58;20.90;;;;;;;2.66;97.66;101510.34;5031909;28;20030;-85
2022/01/15 07:47:52;;;;;;;43.08;21.50;;;;;;;2.57;98.89;101516.53;5035289;28;20045;-88
2022/01/15 07:50:24;;;;;;;42.25;21.05;;;;;;;2.58;100.00;101502.69;5031789;28;20330;-86
2022/01/15 07:52:55;;;;;;;43.55;21.30;;;;;;;2.56;100.00;101509.63;5047736;28;20041;-86
2022/01/15 07:55:21;;;;;;;40.72;20.45;;;;;;;2.61;100.00;101515.59;5024575;28;20033;-85
2022/01/15 07:57:49;;;;;;;43.13;21.63;;;;;;;2.60;99.83;101505.28;5048472;28;20029;-86
2022/01/15 08:00:21;;;;;;;42.83;20.50;;;;;;;2.61;100.00;101515.59;5057799;28;20021;-85
2022/01/15 08:02:47;;;;;;;45.17;21.05;;;;;;;2.61;99.66;101519.91;5059119;28;20137;-84
2022/01/15 08:05:15;;;;;;;45.47;21.48;;;;;;;2.62;99.90;101519.88;5033549;28;20088;-84
2022/01/15 08:07:44;;;;;;;47.00;22.63;;;;;;;2.65;99.68;101517.25;5042077;28;20468;-85
2022/01/15 08:10:10;;;;;;;;;;;;;;;2.66;99.84;101510.34;5034626;28;20059;-85
2022/01/15 08:12:44;;;;;;;41.05;20.50;;;;;;;2.67;99.86;101506.91;5048122;28;19913;-87
2022/01/15 08:15:10;;;;;;;44.67;21.40;;;;;;;2.70;99.71;101512.00;5049641;28;20038;-88
2022/01/15 08:17:36;;;;;;;46.92;22.10;;;;;;;2.74;99.73;101513.66;5038638;28;20486;-86
2022/01/15 08:20:03;;;;;;;45.55;20.98;;;;;;;2.73;99.09;101511.13;5037097;28;20037;-87
2022/01/15 08:22:39;;;;;;;43.13;23.25;;;;;;;2.75;99.47;101507.63;5036317;28;20431;-86
2022/01/15 08:25:34;;;;;;;46.00;23.42;;;;;;;2.78;99.17;101507.59;5035280;28;20099;-87
2022/01/15 08:28:00;;;;;;;42.75;21.55;;;;;;;2.80;98.91;101511.00;4959187;28;20035;-86
2022/01/15 08:30:26;;;;;;;41.20;20.38;;;;;;;2.85;99.82;101506.59;5034226;28;20124;-86
2022/01/15 08:32:51;;;;;;;49.40;22.77;;;;;;;2.82;99.14;101514.44;5019784;28;20496;-87
2022/01/15 08:35:24;;;;;;;45.65;21.35;;;;;;;2.82;98.79;101513.59;5039608;28;20035;-85
2022/01/15 08:37:54;;;;;;;45.42;22.70;;;;;;;2.82;98.80;101513.59;5033877;28;20103;-84
2022/01/15 08:41:11;;;;;;;48.92;22.75;;;;;;;2.88;99.46;101514.31;5047230;28;20030;-84
2022/01/15 08:43:37;;;;;;;44.20;21.08;;;;;;;2.91;99.01;101522.06;5029178;28;20728;-85
2022/01/15 08:46:03;;;;;;;47.30;23.10;;;;;;;2.93;98.71;101516.88;5024747;28;20046;-86
2022/01/15 08:48:28;;;;;;;43.67;22.88;;;;;;;2.99;98.68;101534.88;5025524;28;20113;-87
2022/01/15 08:50:54;;;;;;;45.72;20.85;;;;;;;3.01;97.97;101529.69;5029363;28;20559;-88
2022/01/15 08:53:22;;;;;;;44.40;22.45;;;;;;;3.08;99.16;101526.13;5032989;28;20044;-85
2022/01/15 08:55:48;;;;;;;40.85;22.00;;;;;;;3.08;99.14;101529.56;5027643;28;20335;-86
2022/01/15 08:58:20;;;;;;;42.45;21.60;;;;;;;3.09;98.77;101538.19;5038194;28;20037;-85
2022/01/15 09:00:47;;;;;;;40.00;21.58;;;;;;;3.09;98.46;101535.59;5033528;28;20025;-86
2022/01/15 09:03:13;;;;;;;41.83;20.90;;;;;;;3.09;98.02;101535.59;5037458;28;20485;-86
2022/01/15 09:05:39;;;;;;;39.65;21.23;;;;;;;3.06;97.87;101538.25;5035340;28;20064;-86
2022/01/15 09:08:06;;;;;;;37.53;19.40;;;;;;;3.09;97.80;101530.44;5035459;28;20041;-86
2022/01/15 09:10:41;;;;;;;41.83;20.25;;;;;;;3.09;97.89;101530.44;5047560;28;20766;-86
2022/01/15 09:13:07;;;;;;;36.47;19.92;;;;;;;3.08;98.39;101541.69;5043964;28;20105;-85
2022/01/15 09:15:32;;;;;;;36.60;20.00;;;;;;;3.11;98.12;101539.88;5047926;28;20024;-84
2022/01/15 09:17:58;;;;;;;39.40;19.83;;;;;;;3.13;98.15;101540.72;5044433;28;20042;-86
2022/01/15 09:20:23;;;;;;;39.00;19.95;;;;;;;3.15;98.01;101538.97;5035339;28;20095;-85
2022/01/15 09:22:49;;;;;;;38.17;20.17;;;;;;;3.17;98.15;101543.25;5018837;28;20067;-85
2022/01/15 09:25:15;;;;;;;38.65;21.05;;;;;;;3.19;97.66;101541.47;5032275;28;20026;-85
2022/01/15 09:30:25;;;;;;;40.03;20.23;;;;;;;3.21;97.11;101544.91;5034385;28;20040;-85
2022/01/15 09:32:55;;;;;;;41.85;20.95;;;;;;;3.24;97.38;101537.09;5039849;28;20045;-86
2022/01/15 09:35:32;;;;;;;42.30;21.17;;;;;;;3.29;97.63;101543.06;5034381;28;20199;-87
2022/01/15 09:37:58;;;;;;;36.55;20.23;;;;;;;3.31;97.17;101549.94;5033535;28;20466;-86
2022/01/15 09:40:32;;;;;;;37.25;20.20;;;;;;;3.33;97.00;101545.56;5029959;28;20063;-89
2022/01/15 09:43:04;;;;;;;44.90;20.55;;;;;;;3.96;100.00;101549.63;5045864;28;20033;-87
2022/01/15 09:45:45;;;;;;;49.50;22.02;;;;;;;4.19;99.94;101546.59;5034446;28;20096;-87
2022/01/15 09:48:11;;;;;;;42.58;20.40;;;;;;;4.32;97.88;101544.59;4998769;28;20073;-87
2022/01/15 09:51:21;;;;;;;37.53;19.30;;;;;;;4.34;94.38;101542.84;5022240;28;20091;-86
2022/01/15 09:53:50;;;;;;;32.67;19.40;;;;;;;4.10;93.21;101538.97;5029464;28;20045;-87
2022/01/15 09:56:15;;;;;;;36.38;20.23;;;;;;;3.99;93.36;101534.00;5031511;28;20354;-86
2022/01/15 09:58:44;;;;;;;39.03;19.52;;;;;;;3.87;93.61;101531.66;5011843;28;20049;-85
2022/01/15 10:01:11;;;;;;;40.78;20.08;;;;;;;3.78;93.25;101532.69;5039202;28;20032;-85
2022/01/15 10:03:41;;;;;;;40.30;21.10;;;;;;;3.67;93.99;101542.41;5035140;28;20030;-86
2022/01/15 10:06:07;;;;;;;38.25;20.30;;;;;;;3.66;94.79;101539.81;5022912;28;20124;-86
2022/01/15 10:08:33;;;;;;;40.35;19.80;;;;;;;3.63;94.63;101539.00;5027633;28;20060;-86
2022/01/15 10:11:07;;;;;;;35.55;19.75;;;;;;;3.62;95.14;101539.88;5041936;28;20155;-86
2022/01/15 10:13:50;;;;;;;37.10;19.95;;;;;;;3.63;95.29;101536.41;5031599;28;20092;-87
2022/01/15 10:16:21;;;;;;;39.80;21.08;;;;;;;3.64;94.91;101545.06;5031239;28;20120;-85
2022/01/15 10:18:49;;;;;;;42.10;20.40;;;;;;;3.67;95.66;101531.16;5040984;28;20675;-86
2022/01/15 10:21:19;;;;;;;40.85;20.88;;;;;;;3.68;95.06;101536.31;5051132;28;20039;-86
2022/01/15 10:24:08;;;;;;;33.38;19.27;;;;;;;3.73;94.68;101538.81;5033779;28;20033;-86
2022/01/15 10:26:39;;;;;;;35.80;20.25;;;;;;;3.79;94.26;101533.53;4958794;28;20035;-85
2022/01/15 10:29:14;;;;;;;35.80;18.92;;;;;;;3.78;94.46;101539.59;4974281;28;20038;-86
2022/01/15 10:31:43;;;;;;;42.03;21.13;;;;;;;3.80;94.40;101530.06;4957670;28;20057;-87
2022/01/15 10:34:28;;;;;;;42.50;20.55;;;;;;;3.84;94.64;101529.97;5049671;28;20393;-68
2022/01/15 10:37:06;;;;;;;;;;;;;;;3.84;94.05;101534.28;5010936;28;20034;-69
2022/01/15 10:39:31;;;;;;;39.58;20.48;;;;;;;3.86;94.32;101520.41;4997032;28;20207;-71
2022/01/15 10:41:56;;;;;;;39.63;21.67;;;;;;;3.90;93.57;101521.22;5015477;28;20507;-69
2022/01/15 10:44:36;;;;;;;49.90;25.80;;;;;;;3.89;93.37;101527.25;5016738;28;20539;-69
2022/01/15 10:47:12;;;;;;;38.97;22.65;;;;;;;3.95;93.84;101523.72;5016293;28;20050;-69
2022/01/15 10:49:40;;;;;;;35.88;20.73;;;;;;;3.96;93.09;101523.66;5014837;28;20046;-68
2022/01/15 10:52:26;;;;;;;40.05;21.55;;;;;;;3.98;92.68;101516.72;5016231;28;20041;-69
2022/01/15 10:54:57;;;;;;;40.50;22.20;;;;;;;4.04;93.25;101524.41;5032061;28;20053;-67
2022/01/15 10:57:27;;;;;;;39.65;22.70;;;;;;;4.10;93.10;101521.66;5017545;28;20064;-71
2022/01/15 11:00:09;;;;;;;44.03;22.75;;;;;;;4.13;92.27;101520.75;5017408;28;20022;-68
2022/01/15 11:02:36;;;;;;;41.35;22.08;;;;;;;4.17;92.49;101513.75;5017402;28;20079;-68
2022/01/15 11:05:03;;;;;;;41.75;20.58;;;;;;;4.15;91.88;101508.56;5015618;28;20076;-69
2022/01/15 11:07:35;;;;;;;38.22;20.08;;;;;;;4.18;91.82;101515.47;5016806;28;20081;-69
2022/01/15 11:10:02;;;;;;;41.00;19.52;;;;;;;4.18;91.37;101502.47;5015327;28;20013;-65
2022/01/15 11:12:27;;;;;;;38.40;20.88;;;;;;;4.21;91.67;101499.81;5017736;28;20107;-69
2022/01/15 11:14:54;;;;;;;39.63;21.48;;;;;;;4.21;91.47;101500.66;5014842;28;20100;-70
2022/01/15 11:17:19;;;;;;;36.60;20.77;;;;;;;4.25;91.53;101501.47;5026874;28;20041;-70
2022/01/15 11:19:45;;;;;;;47.80;21.80;;;;;;;4.30;91.27;101500.50;5021724;28;20056;-69
2022/01/15 11:22:18;;;;;;;39.88;21.52;;;;;;;4.33;90.75;101490.00;5020507;28;20136;-66
2022/01/15 11:24:44;;;;;;;38.47;20.48;;;;;;;4.35;90.94;101484.81;5023298;28;20021;-71
2022/01/15 11:27:10;;;;;;;33.58;19.38;;;;;;;4.44;90.99;101484.59;5025105;28;20026;-69
2022/01/15 11:29:36;;;;;;;39.95;21.77;;;;;;;4.48;90.81;101486.22;5023786;28;20132;-70
2022/01/15 11:32:04;;;;;;;40.13;20.52;;;;;;;4.54;90.87;101482.66;5022743;28;20105;-72
2022/01/15 11:34:29;;;;;;;42.33;21.55;;;;;;;4.57;90.26;101473.03;5018509;28;20042;-67
2022/01/15 11:36:55;;;;;;;42.05;21.38;;;;;;;4.59;90.05;101471.25;5022182;28;20099;-69
2022/01/15 11:39:28;;;;;;;43.97;24.52;;;;;;;4.66;90.05;101473.72;5019463;28;20075;-69
2022/01/15 11:41:55;;;;;;;48.35;23.17;;;;;;;4.70;89.86;101468.41;5019153;28;20048;-70
2022/01/15 11:44:29;;;;;;;52.90;27.77;;;;;;;4.78;89.83;101456.13;5014658;28;20073;-69
2022/01/15 11:46:57;;;;;;;43.83;25.05;;;;;;;4.85;89.66;101451.59;5010482;28;20463;-70
2022/01/15 11:49:41;;;;;;;48.20;24.60;;;;;;;4.89;89.50;101448.03;5001229;28;20092;-70
2022/01/15 11:52:08;;;;;;;43.40;22.77;;;;;;;4.93;88.98;101446.22;4998615;28;20053;-68
2022/01/15 11:54:34;;;;;;;37.15;20.13;;;;;;;4.91;88.87;101442.81;5005708;28;20057;-70
2022/01/15 11:57:00;;;;;;;38.47;20.73;;;;;;;4.88;88.34;101432.47;5006998;28;20053;-70
2022/01/15 11:59:26;;;;;;;37.13;21.05;;;;;;;4.86;88.40;101440.34;5007767;28;20180;-72